sensor_id;sensor_type;location;lat;lon;timestamp;P1;durP1;ratioP1;P2;durP2;ratioP2
1004;SDS011;491;53.480;10.174;2023-08-06T00:00:37;3.67;;;0.90;;
1004;SDS011;491;53.480;10.174;2023-08-06T00:03:03;2.30;;;1.03;;
1004;SDS011;491;53.480;10.174;2023-08-06T00:05:29;1.80;;;0.67;;
1004;SDS011;491;53.480;10.174;2023-08-06T00:07:55;1.40;;;0.57;;
1004;SDS011;491;53.480;10.174;2023-08-06T00:10:21;4.30;;;1.57;;
1004;SDS011;491;53.480;10.174;2023-08-06T00:12:47;1.90;;;1.47;;
1004;SDS011;491;53.480;10.174;2023-08-06T00:15:13;2.80;;;0.97;;
1004;SDS011;491;53.480;10.174;2023-08-06T00:17:39;3.80;;;1.43;;
1004;SDS011;491;53.480;10.174;2023-08-06T00:20:06;1.80;;;0.60;;
1004;SDS011;491;53.480;10.174;2023-08-06T00:22:32;1.80;;;0.80;;
1004;SDS011;491;53.480;10.174;2023-08-06T00:24:58;2.53;;;0.73;;
1004;SDS011;491;53.480;10.174;2023-08-06T00:27:24;2.07;;;0.97;;
1004;SDS011;491;53.480;10.174;2023-08-06T00:29:50;3.07;;;1.47;;
1004;SDS011;491;53.480;10.174;2023-08-06T00:32:16;3.93;;;1.90;;
1004;SDS011;491;53.480;10.174;2023-08-06T00:34:42;2.83;;;1.10;;
1004;SDS011;491;53.480;10.174;2023-08-06T00:37:08;3.23;;;1.27;;
1004;SDS011;491;53.480;10.174;2023-08-06T00:39:34;2.17;;;1.10;;
1004;SDS011;491;53.480;10.174;2023-08-06T00:42:00;2.10;;;1.27;;
1004;SDS011;491;53.480;10.174;2023-08-06T00:44:26;4.13;;;2.43;;
1004;SDS011;491;53.480;10.174;2023-08-06T00:46:53;3.27;;;1.73;;
1004;SDS011;491;53.480;10.174;2023-08-06T00:49:19;4.03;;;2.00;;
1004;SDS011;491;53.480;10.174;2023-08-06T00:51:45;3.50;;;2.20;;
1004;SDS011;491;53.480;10.174;2023-08-06T00:54:11;4.30;;;2.57;;
1004;SDS011;491;53.480;10.174;2023-08-06T00:56:37;4.57;;;2.60;;
1004;SDS011;491;53.480;10.174;2023-08-06T00:59:06;3.53;;;2.80;;
1004;SDS011;491;53.480;10.174;2023-08-06T01:01:32;4.93;;;2.10;;
1004;SDS011;491;53.480;10.174;2023-08-06T01:03:58;3.03;;;2.20;;
1004;SDS011;491;53.480;10.174;2023-08-06T01:06:43;2.97;;;1.33;;
1004;SDS011;491;53.480;10.174;2023-08-06T01:09:18;4.47;;;2.67;;
1004;SDS011;491;53.480;10.174;2023-08-06T01:11:58;2.73;;;1.77;;
1004;SDS011;491;53.480;10.174;2023-08-06T01:14:28;3.03;;;1.97;;
1004;SDS011;491;53.480;10.174;2023-08-06T01:16:56;3.93;;;2.70;;
1004;SDS011;491;53.480;10.174;2023-08-06T01:19:26;3.20;;;1.90;;
1004;SDS011;491;53.480;10.174;2023-08-06T01:21:52;2.20;;;1.60;;
1004;SDS011;491;53.480;10.174;2023-08-06T01:24:27;3.50;;;2.30;;
1004;SDS011;491;53.480;10.174;2023-08-06T01:26:55;4.87;;;2.50;;
1004;SDS011;491;53.480;10.174;2023-08-06T01:29:25;3.90;;;2.70;;
1004;SDS011;491;53.480;10.174;2023-08-06T01:31:53;5.40;;;2.70;;
1004;SDS011;491;53.480;10.174;2023-08-06T01:34:21;4.13;;;2.40;;
1004;SDS011;491;53.480;10.174;2023-08-06T01:36:47;4.47;;;2.77;;
1004;SDS011;491;53.480;10.174;2023-08-06T01:39:13;4.00;;;3.60;;
1004;SDS011;491;53.480;10.174;2023-08-06T01:41:39;5.47;;;3.07;;
1004;SDS011;491;53.480;10.174;2023-08-06T01:44:05;4.50;;;3.20;;
1004;SDS011;491;53.480;10.174;2023-08-06T01:46:31;3.50;;;2.60;;
1004;SDS011;491;53.480;10.174;2023-08-06T01:48:57;4.73;;;2.67;;
1004;SDS011;491;53.480;10.174;2023-08-06T01:51:23;3.90;;;3.50;;
1004;SDS011;491;53.480;10.174;2023-08-06T01:53:49;4.33;;;3.40;;
1004;SDS011;491;53.480;10.174;2023-08-06T01:56:14;4.20;;;3.13;;
1004;SDS011;491;53.480;10.174;2023-08-06T01:58:40;3.63;;;2.60;;
1004;SDS011;491;53.480;10.174;2023-08-06T02:01:06;4.00;;;3.00;;
1004;SDS011;491;53.480;10.174;2023-08-06T02:03:32;4.13;;;3.37;;
1004;SDS011;491;53.480;10.174;2023-08-06T02:05:58;5.77;;;3.80;;
1004;SDS011;491;53.480;10.174;2023-08-06T02:08:24;4.70;;;2.80;;
1004;SDS011;491;53.480;10.174;2023-08-06T02:10:50;5.30;;;3.50;;
1004;SDS011;491;53.480;10.174;2023-08-06T02:13:16;8.67;;;4.73;;
1004;SDS011;491;53.480;10.174;2023-08-06T02:15:42;4.80;;;3.87;;
1004;SDS011;491;53.480;10.174;2023-08-06T02:18:09;5.50;;;3.50;;
1004;SDS011;491;53.480;10.174;2023-08-06T02:20:35;5.83;;;3.50;;
1004;SDS011;491;53.480;10.174;2023-08-06T02:23:00;7.10;;;3.90;;
1004;SDS011;491;53.480;10.174;2023-08-06T02:25:26;7.23;;;4.50;;
1004;SDS011;491;53.480;10.174;2023-08-06T02:27:52;4.47;;;3.40;;
1004;SDS011;491;53.480;10.174;2023-08-06T02:30:18;5.70;;;4.20;;
1004;SDS011;491;53.480;10.174;2023-08-06T02:32:44;5.17;;;4.20;;
1004;SDS011;491;53.480;10.174;2023-08-06T02:35:10;5.67;;;3.97;;
1004;SDS011;491;53.480;10.174;2023-08-06T02:37:36;4.73;;;4.07;;
1004;SDS011;491;53.480;10.174;2023-08-06T02:40:02;5.67;;;4.30;;
1004;SDS011;491;53.480;10.174;2023-08-06T02:42:28;5.70;;;4.33;;
1004;SDS011;491;53.480;10.174;2023-08-06T02:44:54;5.83;;;3.57;;
1004;SDS011;491;53.480;10.174;2023-08-06T02:47:20;5.30;;;4.10;;
1004;SDS011;491;53.480;10.174;2023-08-06T02:49:46;4.97;;;3.50;;
1004;SDS011;491;53.480;10.174;2023-08-06T02:52:12;5.80;;;4.17;;
1004;SDS011;491;53.480;10.174;2023-08-06T02:54:38;5.50;;;3.13;;
1004;SDS011;491;53.480;10.174;2023-08-06T02:57:04;7.07;;;4.53;;
1004;SDS011;491;53.480;10.174;2023-08-06T02:59:30;6.30;;;4.10;;
1004;SDS011;491;53.480;10.174;2023-08-06T03:01:56;4.50;;;3.77;;
1004;SDS011;491;53.480;10.174;2023-08-06T03:04:22;5.00;;;3.40;;
1004;SDS011;491;53.480;10.174;2023-08-06T03:06:51;4.23;;;3.40;;
1004;SDS011;491;53.480;10.174;2023-08-06T03:09:17;4.30;;;3.23;;
1004;SDS011;491;53.480;10.174;2023-08-06T03:11:43;5.20;;;3.30;;
1004;SDS011;491;53.480;10.174;2023-08-06T03:14:09;4.93;;;3.60;;
1004;SDS011;491;53.480;10.174;2023-08-06T03:16:35;5.93;;;3.90;;
1004;SDS011;491;53.480;10.174;2023-08-06T03:19:01;3.20;;;2.30;;
1004;SDS011;491;53.480;10.174;2023-08-06T03:21:27;5.23;;;3.30;;
1004;SDS011;491;53.480;10.174;2023-08-06T03:23:53;5.00;;;3.10;;
1004;SDS011;491;53.480;10.174;2023-08-06T03:26:18;4.70;;;3.13;;
1004;SDS011;491;53.480;10.174;2023-08-06T03:28:44;4.50;;;2.70;;
1004;SDS011;491;53.480;10.174;2023-08-06T03:31:10;4.13;;;3.27;;
1004;SDS011;491;53.480;10.174;2023-08-06T03:33:36;4.20;;;3.00;;
1004;SDS011;491;53.480;10.174;2023-08-06T03:36:02;4.97;;;3.00;;
1004;SDS011;491;53.480;10.174;2023-08-06T03:38:28;4.17;;;2.33;;
1004;SDS011;491;53.480;10.174;2023-08-06T03:40:54;6.20;;;3.23;;
1004;SDS011;491;53.480;10.174;2023-08-06T03:43:20;5.17;;;2.60;;
1004;SDS011;491;53.480;10.174;2023-08-06T03:45:46;3.83;;;2.23;;
1004;SDS011;491;53.480;10.174;2023-08-06T03:48:12;5.30;;;2.97;;
1004;SDS011;491;53.480;10.174;2023-08-06T03:50:38;5.67;;;2.90;;
1004;SDS011;491;53.480;10.174;2023-08-06T03:53:04;4.50;;;2.90;;
1004;SDS011;491;53.480;10.174;2023-08-06T03:55:29;3.40;;;2.00;;
1004;SDS011;491;53.480;10.174;2023-08-06T03:57:55;5.03;;;3.00;;
1004;SDS011;491;53.480;10.174;2023-08-06T04:00:21;7.03;;;2.93;;
1004;SDS011;491;53.480;10.174;2023-08-06T04:02:47;4.00;;;2.33;;
1004;SDS011;491;53.480;10.174;2023-08-06T04:05:14;4.37;;;2.30;;
1004;SDS011;491;53.480;10.174;2023-08-06T04:07:40;3.80;;;3.50;;
1004;SDS011;491;53.480;10.174;2023-08-06T04:10:06;4.10;;;2.83;;
1004;SDS011;491;53.480;10.174;2023-08-06T04:12:32;4.20;;;3.13;;
1004;SDS011;491;53.480;10.174;2023-08-06T04:15:01;5.50;;;2.97;;
1004;SDS011;491;53.480;10.174;2023-08-06T04:17:27;3.97;;;2.53;;
1004;SDS011;491;53.480;10.174;2023-08-06T04:19:54;2.70;;;2.07;;
1004;SDS011;491;53.480;10.174;2023-08-06T04:22:20;4.03;;;2.90;;
1004;SDS011;491;53.480;10.174;2023-08-06T04:24:46;3.60;;;2.90;;
1004;SDS011;491;53.480;10.174;2023-08-06T04:27:13;4.07;;;3.03;;
1004;SDS011;491;53.480;10.174;2023-08-06T04:29:39;6.23;;;2.50;;
1004;SDS011;491;53.480;10.174;2023-08-06T04:32:05;3.43;;;2.73;;
1004;SDS011;491;53.480;10.174;2023-08-06T04:34:32;3.57;;;2.97;;
1004;SDS011;491;53.480;10.174;2023-08-06T04:36:58;8.00;;;2.80;;
1004;SDS011;491;53.480;10.174;2023-08-06T04:39:24;3.47;;;2.70;;
1004;SDS011;491;53.480;10.174;2023-08-06T04:41:50;4.93;;;2.60;;
1004;SDS011;491;53.480;10.174;2023-08-06T04:44:16;4.43;;;2.50;;
1004;SDS011;491;53.480;10.174;2023-08-06T04:46:42;6.10;;;3.43;;
1004;SDS011;491;53.480;10.174;2023-08-06T04:49:08;4.93;;;3.20;;
1004;SDS011;491;53.480;10.174;2023-08-06T04:51:34;3.90;;;2.67;;
1004;SDS011;491;53.480;10.174;2023-08-06T04:53:59;5.27;;;3.23;;
1004;SDS011;491;53.480;10.174;2023-08-06T04:56:25;4.37;;;2.23;;
1004;SDS011;491;53.480;10.174;2023-08-06T04:58:52;6.87;;;3.43;;
1004;SDS011;491;53.480;10.174;2023-08-06T05:01:18;4.50;;;3.03;;
1004;SDS011;491;53.480;10.174;2023-08-06T05:03:44;6.70;;;3.17;;
1004;SDS011;491;53.480;10.174;2023-08-06T05:06:10;4.00;;;2.60;;
1004;SDS011;491;53.480;10.174;2023-08-06T05:08:36;6.90;;;4.10;;
1004;SDS011;491;53.480;10.174;2023-08-06T05:11:02;4.77;;;2.87;;
1004;SDS011;491;53.480;10.174;2023-08-06T05:13:28;5.53;;;3.60;;
1004;SDS011;491;53.480;10.174;2023-08-06T05:15:54;6.73;;;3.10;;
1004;SDS011;491;53.480;10.174;2023-08-06T05:18:20;5.53;;;3.30;;
1004;SDS011;491;53.480;10.174;2023-08-06T05:20:46;8.70;;;3.57;;
1004;SDS011;491;53.480;10.174;2023-08-06T05:23:11;4.20;;;2.70;;
1004;SDS011;491;53.480;10.174;2023-08-06T05:25:37;7.67;;;3.93;;
1004;SDS011;491;53.480;10.174;2023-08-06T05:28:04;7.47;;;3.70;;
1004;SDS011;491;53.480;10.174;2023-08-06T05:30:30;5.20;;;3.73;;
1004;SDS011;491;53.480;10.174;2023-08-06T05:32:56;5.70;;;2.97;;
1004;SDS011;491;53.480;10.174;2023-08-06T05:35:22;5.73;;;4.10;;
1004;SDS011;491;53.480;10.174;2023-08-06T05:37:48;4.87;;;3.20;;
1004;SDS011;491;53.480;10.174;2023-08-06T05:40:14;4.77;;;3.03;;
1004;SDS011;491;53.480;10.174;2023-08-06T05:42:40;6.73;;;4.03;;
1004;SDS011;491;53.480;10.174;2023-08-06T05:45:06;4.90;;;3.83;;
1004;SDS011;491;53.480;10.174;2023-08-06T05:47:32;7.20;;;4.10;;
1004;SDS011;491;53.480;10.174;2023-08-06T05:49:58;7.03;;;4.00;;
1004;SDS011;491;53.480;10.174;2023-08-06T05:52:24;4.57;;;3.00;;
1004;SDS011;491;53.480;10.174;2023-08-06T05:54:50;4.53;;;3.50;;
1004;SDS011;491;53.480;10.174;2023-08-06T05:57:16;7.07;;;3.93;;
1004;SDS011;491;53.480;10.174;2023-08-06T05:59:42;7.23;;;3.03;;
1004;SDS011;491;53.480;10.174;2023-08-06T06:02:08;8.50;;;3.50;;
1004;SDS011;491;53.480;10.174;2023-08-06T06:04:34;5.87;;;3.43;;
1004;SDS011;491;53.480;10.174;2023-08-06T06:07:00;4.47;;;3.87;;
1004;SDS011;491;53.480;10.174;2023-08-06T06:09:26;7.37;;;4.23;;
1004;SDS011;491;53.480;10.174;2023-08-06T06:11:52;7.37;;;3.90;;
1004;SDS011;491;53.480;10.174;2023-08-06T06:14:18;6.20;;;3.87;;
1004;SDS011;491;53.480;10.174;2023-08-06T06:16:44;4.60;;;3.57;;
1004;SDS011;491;53.480;10.174;2023-08-06T06:19:11;5.77;;;3.80;;
1004;SDS011;491;53.480;10.174;2023-08-06T06:21:37;6.10;;;3.87;;
1004;SDS011;491;53.480;10.174;2023-08-06T06:24:04;6.90;;;2.97;;
1004;SDS011;491;53.480;10.174;2023-08-06T06:26:30;5.67;;;4.30;;
1004;SDS011;491;53.480;10.174;2023-08-06T06:28:56;9.37;;;3.90;;
1004;SDS011;491;53.480;10.174;2023-08-06T06:31:22;6.57;;;4.10;;
1004;SDS011;491;53.480;10.174;2023-08-06T06:33:48;5.17;;;4.27;;
1004;SDS011;491;53.480;10.174;2023-08-06T06:36:14;7.17;;;4.10;;
1004;SDS011;491;53.480;10.174;2023-08-06T06:38:40;5.80;;;4.50;;
1004;SDS011;491;53.480;10.174;2023-08-06T06:41:06;6.50;;;3.93;;
1004;SDS011;491;53.480;10.174;2023-08-06T06:43:32;9.10;;;3.33;;
1004;SDS011;491;53.480;10.174;2023-08-06T06:45:58;5.53;;;3.77;;
1004;SDS011;491;53.480;10.174;2023-08-06T06:48:28;7.20;;;3.60;;
1004;SDS011;491;53.480;10.174;2023-08-06T06:50:54;5.10;;;3.70;;
1004;SDS011;491;53.480;10.174;2023-08-06T06:53:20;7.57;;;4.00;;
1004;SDS011;491;53.480;10.174;2023-08-06T06:55:51;6.10;;;4.00;;
1004;SDS011;491;53.480;10.174;2023-08-06T06:58:17;5.80;;;3.40;;
1004;SDS011;491;53.480;10.174;2023-08-06T07:00:43;4.47;;;3.83;;
1004;SDS011;491;53.480;10.174;2023-08-06T07:03:09;6.63;;;4.00;;
1004;SDS011;491;53.480;10.174;2023-08-06T07:05:35;5.33;;;4.17;;
1004;SDS011;491;53.480;10.174;2023-08-06T07:08:01;11.13;;;3.97;;
1004;SDS011;491;53.480;10.174;2023-08-06T07:10:27;7.23;;;4.13;;
1004;SDS011;491;53.480;10.174;2023-08-06T07:12:53;8.67;;;4.37;;
1004;SDS011;491;53.480;10.174;2023-08-06T07:15:19;6.80;;;4.03;;
1004;SDS011;491;53.480;10.174;2023-08-06T07:17:45;8.17;;;4.53;;
1004;SDS011;491;53.480;10.174;2023-08-06T07:20:11;5.37;;;3.90;;
1004;SDS011;491;53.480;10.174;2023-08-06T07:22:37;8.53;;;4.60;;
1004;SDS011;491;53.480;10.174;2023-08-06T07:25:03;9.33;;;6.03;;
1004;SDS011;491;53.480;10.174;2023-08-06T07:27:29;5.30;;;4.80;;
1004;SDS011;491;53.480;10.174;2023-08-06T07:29:55;7.20;;;4.60;;
1004;SDS011;491;53.480;10.174;2023-08-06T07:32:20;6.83;;;4.20;;
1004;SDS011;491;53.480;10.174;2023-08-06T07:34:46;6.33;;;4.80;;
1004;SDS011;491;53.480;10.174;2023-08-06T07:37:12;6.33;;;4.43;;
1004;SDS011;491;53.480;10.174;2023-08-06T07:39:38;7.30;;;4.37;;
1004;SDS011;491;53.480;10.174;2023-08-06T07:42:06;6.03;;;4.17;;
1004;SDS011;491;53.480;10.174;2023-08-06T07:44:32;5.30;;;4.30;;
1004;SDS011;491;53.480;10.174;2023-08-06T07:46:58;5.40;;;4.00;;
1004;SDS011;491;53.480;10.174;2023-08-06T07:49:24;7.77;;;4.87;;
1004;SDS011;491;53.480;10.174;2023-08-06T07:51:50;7.97;;;5.10;;
1004;SDS011;491;53.480;10.174;2023-08-06T07:54:17;6.23;;;4.60;;
1004;SDS011;491;53.480;10.174;2023-08-06T07:56:43;5.87;;;4.70;;
1004;SDS011;491;53.480;10.174;2023-08-06T07:59:09;6.70;;;4.63;;
1004;SDS011;491;53.480;10.174;2023-08-06T08:01:35;5.43;;;4.10;;
1004;SDS011;491;53.480;10.174;2023-08-06T08:04:01;8.27;;;4.50;;
1004;SDS011;491;53.480;10.174;2023-08-06T08:06:27;6.27;;;4.30;;
1004;SDS011;491;53.480;10.174;2023-08-06T08:08:53;4.37;;;3.73;;
1004;SDS011;491;53.480;10.174;2023-08-06T08:11:20;8.80;;;4.17;;
1004;SDS011;491;53.480;10.174;2023-08-06T08:13:46;6.23;;;3.70;;
1004;SDS011;491;53.480;10.174;2023-08-06T08:16:11;7.00;;;4.73;;
1004;SDS011;491;53.480;10.174;2023-08-06T08:18:37;5.90;;;4.80;;
1004;SDS011;491;53.480;10.174;2023-08-06T08:21:03;6.23;;;4.43;;
1004;SDS011;491;53.480;10.174;2023-08-06T08:23:29;6.03;;;4.57;;
1004;SDS011;491;53.480;10.174;2023-08-06T08:25:56;7.47;;;5.17;;
1004;SDS011;491;53.480;10.174;2023-08-06T08:28:22;7.67;;;4.43;;
1004;SDS011;491;53.480;10.174;2023-08-06T08:30:48;6.43;;;4.67;;
1004;SDS011;491;53.480;10.174;2023-08-06T08:33:14;7.93;;;4.80;;
1004;SDS011;491;53.480;10.174;2023-08-06T08:35:40;6.60;;;4.13;;
1004;SDS011;491;53.480;10.174;2023-08-06T08:38:08;4.93;;;4.43;;
1004;SDS011;491;53.480;10.174;2023-08-06T08:40:34;9.40;;;5.20;;
1004;SDS011;491;53.480;10.174;2023-08-06T08:43:03;5.47;;;4.53;;
1004;SDS011;491;53.480;10.174;2023-08-06T08:45:30;8.60;;;6.23;;
1004;SDS011;491;53.480;10.174;2023-08-06T08:47:59;11.03;;;5.53;;
1004;SDS011;491;53.480;10.174;2023-08-06T08:50:25;9.53;;;5.00;;
1004;SDS011;491;53.480;10.174;2023-08-06T08:52:51;7.97;;;4.70;;
1004;SDS011;491;53.480;10.174;2023-08-06T08:55:17;6.90;;;4.77;;
1004;SDS011;491;53.480;10.174;2023-08-06T08:57:47;5.33;;;4.80;;
1004;SDS011;491;53.480;10.174;2023-08-06T09:00:12;6.03;;;4.57;;
1004;SDS011;491;53.480;10.174;2023-08-06T09:02:39;6.10;;;4.50;;
1004;SDS011;491;53.480;10.174;2023-08-06T09:05:08;6.53;;;4.67;;
1004;SDS011;491;53.480;10.174;2023-08-06T09:07:35;8.37;;;6.17;;
1004;SDS011;491;53.480;10.174;2023-08-06T09:10:04;7.70;;;5.27;;
1004;SDS011;491;53.480;10.174;2023-08-06T09:12:32;8.13;;;5.63;;
1004;SDS011;491;53.480;10.174;2023-08-06T09:14:58;6.33;;;4.53;;
1004;SDS011;491;53.480;10.174;2023-08-06T09:17:24;6.33;;;5.50;;
1004;SDS011;491;53.480;10.174;2023-08-06T09:19:50;7.07;;;4.20;;
1004;SDS011;491;53.480;10.174;2023-08-06T09:22:16;6.70;;;4.57;;
1004;SDS011;491;53.480;10.174;2023-08-06T09:24:42;6.63;;;5.60;;
1004;SDS011;491;53.480;10.174;2023-08-06T09:27:12;5.83;;;4.60;;
1004;SDS011;491;53.480;10.174;2023-08-06T09:29:45;5.40;;;4.13;;
1004;SDS011;491;53.480;10.174;2023-08-06T09:32:11;9.50;;;4.90;;
1004;SDS011;491;53.480;10.174;2023-08-06T09:34:41;5.40;;;4.50;;
1004;SDS011;491;53.480;10.174;2023-08-06T09:37:10;5.77;;;5.07;;
1004;SDS011;491;53.480;10.174;2023-08-06T09:39:38;7.53;;;4.63;;
1004;SDS011;491;53.480;10.174;2023-08-06T09:42:04;5.83;;;5.30;;
1004;SDS011;491;53.480;10.174;2023-08-06T09:44:31;6.03;;;5.40;;
1004;SDS011;491;53.480;10.174;2023-08-06T09:46:57;9.00;;;5.57;;
1004;SDS011;491;53.480;10.174;2023-08-06T09:49:28;7.70;;;6.20;;
1004;SDS011;491;53.480;10.174;2023-08-06T09:52:10;8.07;;;5.53;;
1004;SDS011;491;53.480;10.174;2023-08-06T09:54:37;6.00;;;5.10;;
1004;SDS011;491;53.480;10.174;2023-08-06T09:57:03;8.90;;;5.90;;
1004;SDS011;491;53.480;10.174;2023-08-06T09:59:29;14.37;;;7.97;;
1004;SDS011;491;53.480;10.174;2023-08-06T10:01:56;7.90;;;6.07;;
1004;SDS011;491;53.480;10.174;2023-08-06T10:04:22;8.57;;;6.93;;
1004;SDS011;491;53.480;10.174;2023-08-06T10:06:49;7.73;;;6.40;;
1004;SDS011;491;53.480;10.174;2023-08-06T10:09:15;12.23;;;7.33;;
1004;SDS011;491;53.480;10.174;2023-08-06T10:11:44;8.30;;;6.93;;
1004;SDS011;491;53.480;10.174;2023-08-06T10:14:15;7.63;;;6.27;;
1004;SDS011;491;53.480;10.174;2023-08-06T10:16:42;6.57;;;5.77;;
1004;SDS011;491;53.480;10.174;2023-08-06T10:19:11;9.93;;;6.43;;
1004;SDS011;491;53.480;10.174;2023-08-06T10:21:38;9.83;;;5.60;;
1004;SDS011;491;53.480;10.174;2023-08-06T10:24:06;7.50;;;6.80;;
1004;SDS011;491;53.480;10.174;2023-08-06T10:26:35;7.23;;;6.20;;
1004;SDS011;491;53.480;10.174;2023-08-06T10:29:01;7.80;;;5.50;;
1004;SDS011;491;53.480;10.174;2023-08-06T10:34:11;13.57;;;5.70;;
1004;SDS011;491;53.480;10.174;2023-08-06T10:36:45;6.43;;;5.10;;
1004;SDS011;491;53.480;10.174;2023-08-06T10:39:13;7.63;;;4.80;;
1004;SDS011;491;53.480;10.174;2023-08-06T10:41:39;7.00;;;4.57;;
1004;SDS011;491;53.480;10.174;2023-08-06T10:44:07;6.50;;;5.00;;
1004;SDS011;491;53.480;10.174;2023-08-06T10:46:34;6.13;;;5.43;;
1004;SDS011;491;53.480;10.174;2023-08-06T10:49:00;4.90;;;4.10;;
1004;SDS011;491;53.480;10.174;2023-08-06T10:51:26;5.43;;;4.93;;
1004;SDS011;491;53.480;10.174;2023-08-06T10:53:52;5.03;;;3.67;;
1004;SDS011;491;53.480;10.174;2023-08-06T10:56:19;4.60;;;4.07;;
1004;SDS011;491;53.480;10.174;2023-08-06T10:58:47;5.00;;;4.43;;
1004;SDS011;491;53.480;10.174;2023-08-06T11:01:13;6.17;;;5.53;;
1004;SDS011;491;53.480;10.174;2023-08-06T11:03:40;4.50;;;3.60;;
1004;SDS011;491;53.480;10.174;2023-08-06T11:06:09;5.00;;;3.87;;
1004;SDS011;491;53.480;10.174;2023-08-06T11:08:35;5.93;;;4.40;;
1004;SDS011;491;53.480;10.174;2023-08-06T11:11:11;5.00;;;3.67;;
1004;SDS011;491;53.480;10.174;2023-08-06T11:13:45;5.37;;;4.33;;
1004;SDS011;491;53.480;10.174;2023-08-06T11:16:11;4.83;;;4.03;;
1004;SDS011;491;53.480;10.174;2023-08-06T11:18:38;4.23;;;3.60;;
1004;SDS011;491;53.480;10.174;2023-08-06T11:21:05;4.17;;;3.63;;
1004;SDS011;491;53.480;10.174;2023-08-06T11:23:31;4.13;;;2.67;;
1004;SDS011;491;53.480;10.174;2023-08-06T11:25:57;4.43;;;3.70;;
1004;SDS011;491;53.480;10.174;2023-08-06T11:28:23;4.43;;;4.00;;
1004;SDS011;491;53.480;10.174;2023-08-06T11:30:49;4.17;;;3.60;;
1004;SDS011;491;53.480;10.174;2023-08-06T11:33:22;4.30;;;3.50;;
1004;SDS011;491;53.480;10.174;2023-08-06T11:35:50;4.53;;;3.30;;
1004;SDS011;491;53.480;10.174;2023-08-06T11:38:16;5.60;;;3.90;;
1004;SDS011;491;53.480;10.174;2023-08-06T11:40:43;4.27;;;3.87;;
1004;SDS011;491;53.480;10.174;2023-08-06T11:43:10;3.50;;;3.20;;
1004;SDS011;491;53.480;10.174;2023-08-06T11:45:36;4.00;;;3.30;;
1004;SDS011;491;53.480;10.174;2023-08-06T11:48:02;4.10;;;3.63;;
1004;SDS011;491;53.480;10.174;2023-08-06T11:50:28;4.20;;;3.73;;
1004;SDS011;491;53.480;10.174;2023-08-06T11:52:59;4.37;;;3.93;;
1004;SDS011;491;53.480;10.174;2023-08-06T11:55:25;4.50;;;4.03;;
1004;SDS011;491;53.480;10.174;2023-08-06T11:57:53;5.50;;;4.40;;
1004;SDS011;491;53.480;10.174;2023-08-06T12:00:19;5.27;;;3.97;;
1004;SDS011;491;53.480;10.174;2023-08-06T12:02:47;4.37;;;3.63;;
1004;SDS011;491;53.480;10.174;2023-08-06T12:07:40;5.13;;;3.77;;
1004;SDS011;491;53.480;10.174;2023-08-06T12:10:07;5.10;;;3.13;;
1004;SDS011;491;53.480;10.174;2023-08-06T12:12:33;6.43;;;5.23;;
1004;SDS011;491;53.480;10.174;2023-08-06T12:14:59;5.53;;;4.30;;
1004;SDS011;491;53.480;10.174;2023-08-06T12:17:25;5.40;;;3.87;;
1004;SDS011;491;53.480;10.174;2023-08-06T12:19:51;7.97;;;4.60;;
1004;SDS011;491;53.480;10.174;2023-08-06T12:22:17;4.43;;;3.90;;
1004;SDS011;491;53.480;10.174;2023-08-06T12:24:44;5.93;;;3.93;;
1004;SDS011;491;53.480;10.174;2023-08-06T12:27:10;6.23;;;4.30;;
1004;SDS011;491;53.480;10.174;2023-08-06T12:29:37;5.00;;;4.13;;
1004;SDS011;491;53.480;10.174;2023-08-06T12:32:03;4.57;;;4.07;;
1004;SDS011;491;53.480;10.174;2023-08-06T12:34:29;4.47;;;4.07;;
1004;SDS011;491;53.480;10.174;2023-08-06T12:36:55;6.20;;;4.77;;
1004;SDS011;491;53.480;10.174;2023-08-06T12:39:24;4.17;;;3.77;;
1004;SDS011;491;53.480;10.174;2023-08-06T12:41:49;4.60;;;3.60;;
1004;SDS011;491;53.480;10.174;2023-08-06T12:44:15;6.37;;;4.00;;
1004;SDS011;491;53.480;10.174;2023-08-06T12:46:41;3.53;;;3.00;;
1004;SDS011;491;53.480;10.174;2023-08-06T12:49:07;4.07;;;3.47;;
1004;SDS011;491;53.480;10.174;2023-08-06T12:51:33;4.00;;;3.67;;
1004;SDS011;491;53.480;10.174;2023-08-06T12:53:59;4.70;;;3.37;;
1004;SDS011;491;53.480;10.174;2023-08-06T12:56:25;3.90;;;3.17;;
1004;SDS011;491;53.480;10.174;2023-08-06T12:58:51;5.23;;;2.80;;
1004;SDS011;491;53.480;10.174;2023-08-06T13:01:17;3.23;;;2.90;;
1004;SDS011;491;53.480;10.174;2023-08-06T13:03:43;3.77;;;3.20;;
1004;SDS011;491;53.480;10.174;2023-08-06T13:06:09;3.30;;;2.50;;
1004;SDS011;491;53.480;10.174;2023-08-06T13:08:35;5.23;;;2.97;;
1004;SDS011;491;53.480;10.174;2023-08-06T13:11:01;3.33;;;2.53;;
1004;SDS011;491;53.480;10.174;2023-08-06T13:13:27;4.73;;;4.07;;
1004;SDS011;491;53.480;10.174;2023-08-06T13:15:53;3.17;;;2.87;;
1004;SDS011;491;53.480;10.174;2023-08-06T13:18:18;4.40;;;3.40;;
1004;SDS011;491;53.480;10.174;2023-08-06T13:20:44;3.90;;;3.23;;
1004;SDS011;491;53.480;10.174;2023-08-06T13:23:12;4.10;;;3.20;;
1004;SDS011;491;53.480;10.174;2023-08-06T13:25:40;3.57;;;3.23;;
1004;SDS011;491;53.480;10.174;2023-08-06T13:28:06;3.13;;;2.40;;
1004;SDS011;491;53.480;10.174;2023-08-06T13:30:32;3.03;;;2.73;;
1004;SDS011;491;53.480;10.174;2023-08-06T13:33:00;4.30;;;3.33;;
1004;SDS011;491;53.480;10.174;2023-08-06T13:35:26;5.50;;;2.93;;
1004;SDS011;491;53.480;10.174;2023-08-06T13:37:52;5.03;;;3.20;;
1004;SDS011;491;53.480;10.174;2023-08-06T13:40:19;3.80;;;3.40;;
1004;SDS011;491;53.480;10.174;2023-08-06T13:42:45;4.90;;;3.77;;
1004;SDS011;491;53.480;10.174;2023-08-06T13:45:11;4.30;;;3.60;;
1004;SDS011;491;53.480;10.174;2023-08-06T13:47:37;4.37;;;3.20;;
1004;SDS011;491;53.480;10.174;2023-08-06T13:50:03;3.93;;;3.53;;
1004;SDS011;491;53.480;10.174;2023-08-06T13:52:28;5.47;;;4.10;;
1004;SDS011;491;53.480;10.174;2023-08-06T13:54:56;4.50;;;3.10;;
1004;SDS011;491;53.480;10.174;2023-08-06T13:57:22;5.00;;;4.37;;
1004;SDS011;491;53.480;10.174;2023-08-06T13:59:48;4.67;;;4.07;;
1004;SDS011;491;53.480;10.174;2023-08-06T14:02:14;4.73;;;3.60;;
1004;SDS011;491;53.480;10.174;2023-08-06T14:04:40;4.50;;;3.00;;
1004;SDS011;491;53.480;10.174;2023-08-06T14:07:06;5.30;;;4.30;;
1004;SDS011;491;53.480;10.174;2023-08-06T14:09:31;5.27;;;3.60;;
1004;SDS011;491;53.480;10.174;2023-08-06T14:11:59;4.00;;;3.60;;
1004;SDS011;491;53.480;10.174;2023-08-06T14:14:25;5.33;;;3.60;;
1004;SDS011;491;53.480;10.174;2023-08-06T14:16:52;4.07;;;3.60;;
1004;SDS011;491;53.480;10.174;2023-08-06T14:19:19;4.80;;;3.90;;
1004;SDS011;491;53.480;10.174;2023-08-06T14:21:44;6.10;;;3.30;;
1004;SDS011;491;53.480;10.174;2023-08-06T14:24:10;5.97;;;3.30;;
1004;SDS011;491;53.480;10.174;2023-08-06T14:26:36;6.57;;;3.30;;
1004;SDS011;491;53.480;10.174;2023-08-06T14:29:02;5.67;;;3.67;;
1004;SDS011;491;53.480;10.174;2023-08-06T14:31:28;5.87;;;2.17;;
1004;SDS011;491;53.480;10.174;2023-08-06T14:33:54;3.10;;;2.70;;
1004;SDS011;491;53.480;10.174;2023-08-06T14:36:20;4.73;;;3.20;;
1004;SDS011;491;53.480;10.174;2023-08-06T14:38:46;4.57;;;2.70;;
1004;SDS011;491;53.480;10.174;2023-08-06T14:41:12;4.60;;;3.47;;
1004;SDS011;491;53.480;10.174;2023-08-06T14:43:41;4.23;;;2.67;;
1004;SDS011;491;53.480;10.174;2023-08-06T14:46:10;4.63;;;2.70;;
1004;SDS011;491;53.480;10.174;2023-08-06T14:48:36;2.77;;;2.23;;
1004;SDS011;491;53.480;10.174;2023-08-06T14:51:02;4.97;;;2.50;;
1004;SDS011;491;53.480;10.174;2023-08-06T14:53:28;5.80;;;3.00;;
1004;SDS011;491;53.480;10.174;2023-08-06T14:55:54;6.93;;;3.60;;
1004;SDS011;491;53.480;10.174;2023-08-06T14:58:20;10.90;;;4.53;;
1004;SDS011;491;53.480;10.174;2023-08-06T15:00:45;3.27;;;2.30;;
1004;SDS011;491;53.480;10.174;2023-08-06T15:03:11;4.53;;;3.37;;
1004;SDS011;491;53.480;10.174;2023-08-06T15:05:37;8.27;;;3.40;;
1004;SDS011;491;53.480;10.174;2023-08-06T15:08:03;3.67;;;3.00;;
1004;SDS011;491;53.480;10.174;2023-08-06T15:10:29;4.10;;;3.30;;
1004;SDS011;491;53.480;10.174;2023-08-06T15:12:55;4.87;;;3.27;;
1004;SDS011;491;53.480;10.174;2023-08-06T15:15:21;5.73;;;3.13;;